Time;durP1;ratioP1;P1;durP2;ratioP2;P2;SDS_P1;SDS_P2;PMS_P1;PMS_P2;Temp;Humidity;BMP_temperature;BMP_pressure;BME280_temperature;BME280_humidity;BME280_pressure;Samples;Min_cycle;Max_cycle;Signal;HPM_P1;HPM_P2
2023/09/03 00:00:41;;;;;;;4.47;3.60;;;16.50;99.90;;;;;;5031779;28;20196;-74
2023/09/03 00:03:07;;;;;;;8.55;3.85;;;16.60;99.90;;;;;;5031676;28;20173;-73
2023/09/03 00:05:33;;;;;;;6.55;4.20;;;;;;;;;;5031397;28;20206;-73
2023/09/03 00:07:59;;;;;;;6.22;3.58;;;;;;;;;;5031510;28;20239;-73
2023/09/03 00:10:25;;;;;;;5.30;4.05;;;16.30;99.90;;;;;;5030077;28;20212;-73
2023/09/03 00:12:51;;;;;;;8.85;4.70;;;16.40;99.90;;;;;;5032912;28;20193;-73
2023/09/03 00:15:22;;;;;;;7.20;4.57;;;16.60;99.90;;;;;;5051123;28;20181;-73
2023/09/03 00:17:47;;;;;;;6.50;4.22;;;16.50;99.90;;;;;;5051626;28;20183;-73
2023/09/03 00:20:13;;;;;;;7.50;4.45;;;;;;;;;;5051102;28;20509;-73
2023/09/03 00:22:39;;;;;;;8.45;4.22;;;16.50;99.90;;;;;;5051283;28;20165;-73
2023/09/03 00:25:05;;;;;;;5.18;4.18;;;16.40;99.90;;;;;;5051040;28;20176;-73
2023/09/03 00:27:32;;;;;;;4.88;4.00;;;16.50;99.90;;;;;;5050908;28;20177;-73
2023/09/03 00:29:57;;;;;;;5.18;3.78;;;16.60;99.90;;;;;;5049842;28;20192;-73
2023/09/03 00:32:23;;;;;;;4.68;3.45;;;16.50;99.90;;;;;;5051093;28;20169;-73
2023/09/03 00:34:49;;;;;;;6.28;3.70;;;16.50;99.90;;;;;;5051159;28;20257;-74
2023/09/03 00:37:14;;;;;;;5.75;3.40;;;16.50;99.90;;;;;;5050988;28;20656;-74
2023/09/03 00:39:40;;;;;;;5.90;3.35;;;16.50;99.90;;;;;;5050862;28;20503;-74
2023/09/03 00:42:06;;;;;;;4.45;3.45;;;16.50;99.90;;;;;;5049486;28;20220;-74
2023/09/03 00:44:31;;;;;;;5.05;3.38;;;16.30;99.90;;;;;;5050821;28;20659;-74
2023/09/03 00:46:57;;;;;;;7.60;3.80;;;16.30;99.90;;;;;;5050527;28;20213;-74
2023/09/03 00:49:24;;;;;;;4.43;3.58;;;12.40;99.90;;;;;;5045573;28;20178;-74
2023/09/03 00:51:54;;;;;;;4.75;3.33;;;16.10;99.90;;;;;;5030849;28;20212;-72
2023/09/03 00:54:22;;;;;;;4.30;3.42;;;15.70;99.90;;;;;;5030941;28;20162;-73
2023/09/03 00:56:49;;;;;;;4.47;3.72;;;16.00;99.90;;;;;;5030901;28;20232;-72
2023/09/03 00:59:18;;;;;;;9.07;3.70;;;15.90;99.90;;;;;;5030249;28;20166;-73
2023/09/03 01:01:44;;;;;;;5.72;3.60;;;15.90;99.90;;;;;;5030940;28;20718;-73
2023/09/03 01:04:10;;;;;;;4.35;3.75;;;16.10;99.90;;;;;;5030790;28;20260;-73
2023/09/03 01:06:36;;;;;;;4.80;3.47;;;15.90;99.90;;;;;;5030629;28;20296;-73
2023/09/03 01:09:02;;;;;;;5.40;3.60;;;15.90;99.90;;;;;;5029576;28;20177;-73
2023/09/03 01:11:59;;;;;;;6.75;3.55;;;15.80;99.90;;;;;;5030565;28;20166;-73
2023/09/03 01:14:53;;;;;;;6.97;3.90;;;15.80;99.90;;;;;;5045086;28;20173;-73
2023/09/03 01:17:39;;;;;;;6.30;3.78;;;15.80;99.90;;;;;;5050478;28;20178;-73
2023/09/03 01:20:15;;;;;;;5.07;3.78;;;15.60;99.90;;;;;;5050498;28;20169;-73
2023/09/03 01:23:02;;;;;;;5.65;3.60;;;15.80;99.90;;;;;;5050610;28;20173;-73
2023/09/03 01:25:55;;;;;;;4.78;3.65;;;15.70;99.90;;;;;;5050409;28;20232;-72
2023/09/03 01:28:25;;;;;;;4.70;3.70;;;15.70;99.90;;;;;;5049074;28;20169;-72
2023/09/03 01:31:03;;;;;;;5.13;3.58;;;15.70;99.90;;;;;;5050666;28;20172;-73
2023/09/03 01:33:31;;;;;;;4.78;3.40;;;15.70;99.90;;;;;;5050501;28;20674;-74
2023/09/03 01:35:58;;;;;;;4.78;3.55;;;15.60;99.90;;;;;;5049108;28;20546;-74
2023/09/03 01:38:25;;;;;;;7.25;3.30;;;15.60;99.90;;;;;;5050585;28;20172;-75
2023/09/03 01:40:51;;;;;;;4.15;3.45;;;15.60;99.90;;;;;;5050326;28;20170;-74
2023/09/03 01:43:17;;;;;;;6.28;3.97;;;15.60;99.90;;;;;;5048971;28;20554;-74
2023/09/03 01:45:52;;;;;;;6.05;3.80;;;15.20;99.90;;;;;;5049891;28;20216;-75
2023/09/03 01:48:36;;;;;;;5.95;3.78;;;15.60;99.90;;;;;;5048799;28;20176;-75
2023/09/03 01:51:23;;;;;;;6.60;3.53;;;15.40;99.90;;;;;;5031232;28;20236;-75
2023/09/03 01:54:12;;;;;;;7.00;4.05;;;15.40;99.90;;;;;;5030264;28;20232;-74
2023/09/03 01:56:45;;;;;;;5.45;3.92;;;15.40;99.90;;;;;;5030341;28;20166;-74
2023/09/03 01:59:28;;;;;;;7.00;3.90;;;15.30;99.90;;;;;;5029005;28;20273;-74
2023/09/03 02:01:55;;;;;;;7.25;3.88;;;15.10;99.90;;;;;;5030394;28;20167;-74
2023/09/03 02:04:20;;;;;;;7.88;4.00;;;15.30;99.90;;;;;;5030440;28;20220;-74
2023/09/03 02:06:46;;;;;;;10.65;4.80;;;15.30;99.90;;;;;;5030176;28;20563;-74
2023/09/03 02:09:12;;;;;;;7.88;4.72;;;15.30;99.90;;;;;;5030126;28;20170;-74
2023/09/03 02:11:38;;;;;;;9.63;5.68;;;15.30;99.90;;;;;;5029984;28;20181;-74
2023/09/03 02:14:03;;;;;;;7.75;5.20;;;15.20;99.90;;;;;;5043927;28;20181;-73
2023/09/03 02:16:29;;;;;;;9.15;5.32;;;15.60;99.90;;;;;;5052211;28;20517;-74
2023/09/03 02:18:55;;;;;;;10.63;5.88;;;;;;;;;;5053381;28;20173;-74
2023/09/03 02:21:20;;;;;;;9.50;5.90;;;15.10;99.90;;;;;;5053265;28;20226;-74
2023/09/03 02:23:46;;;;;;;10.93;6.25;;;;;;;;;;5052100;28;20169;-74
2023/09/03 02:26:12;;;;;;;9.52;6.18;;;;;;;;;;5053369;28;20211;-74
2023/09/03 02:28:39;;;;;;;9.13;6.18;;;15.40;99.90;;;;;;5052087;28;20177;-73
2023/09/03 02:31:05;;;;;;;9.10;6.05;;;;;;;;;;5053213;28;20273;-73
2023/09/03 02:33:31;;;;;;;11.07;6.07;;;;;;;;;;5053243;28;20628;-73
2023/09/03 02:35:57;;;;;;;9.25;6.07;;;;;;;;;;5053215;28;20188;-74
2023/09/03 02:38:23;;;;;;;7.63;5.53;;;;;;;;;;5053232;28;20173;-73
2023/09/03 02:40:49;;;;;;;8.05;5.28;;;;;;;;;;5045980;28;20178;-74
2023/09/03 02:43:16;;;;;;;6.88;4.95;;;15.50;99.90;;;;;;5032889;28;20264;-73
2023/09/03 02:45:41;;;;;;;6.72;5.38;;;15.60;99.90;;;;;;5031526;28;20291;-74
2023/09/03 02:48:08;;;;;;;8.85;5.55;;;15.50;99.90;;;;;;5043709;28;20264;-73
2023/09/03 02:50:37;;;;;;;7.25;5.40;;;15.50;99.90;;;;;;5047674;28;20185;-74
2023/09/03 02:53:06;;;;;;;8.77;5.25;;;15.60;99.90;;;;;;5052646;28;20617;-74
2023/09/03 02:55:32;;;;;;;6.82;4.85;;;15.40;99.90;;;;;;5050242;28;20170;-74
2023/09/03 02:57:57;;;;;;;6.13;4.88;;;15.50;99.90;;;;;;5041687;28;20522;-74
2023/09/03 03:00:23;;;;;;;6.25;4.90;;;15.40;99.90;;;;;;5038912;28;20174;-74
2023/09/03 03:02:50;;;;;;;7.30;5.35;;;15.50;99.90;;;;;;5048473;28;20709;-74
2023/09/03 03:05:15;;;;;;;6.63;4.55;;;15.40;99.90;;;;;;5052326;28;20547;-74
2023/09/03 03:07:42;;;;;;;5.65;4.38;;;15.30;99.90;;;;;;5041567;28;20271;-74
2023/09/03 03:10:09;;;;;;;5.07;4.13;;;15.20;99.90;;;;;;5052503;28;20173;-74
2023/09/03 03:12:36;;;;;;;8.93;4.32;;;15.40;99.90;;;;;;5050793;28;20193;-74
2023/09/03 03:15:02;;;;;;;5.50;4.15;;;15.30;99.90;;;;;;5051113;28;20268;-74
2023/09/03 03:17:27;;;;;;;11.23;4.60;;;15.30;99.90;;;;;;5034397;28;20223;-74
2023/09/03 03:19:53;;;;;;;7.13;4.60;;;15.30;99.90;;;;;;5051577;28;20184;-74
2023/09/03 03:22:19;;;;;;;7.78;4.20;;;;;;;;;;5051870;28;20207;-73
2023/09/03 03:24:45;;;;;;;6.53;4.20;;;;;;;;;;5052098;28;20173;-74
2023/09/03 03:27:11;;;;;;;5.57;4.40;;;;;;;;;;5037948;28;20235;-73
2023/09/03 03:29:37;;;;;;;6.22;4.10;;;;;;;;;;5050478;28;20180;-73
2023/09/03 03:32:04;;;;;;;5.80;4.38;;;15.10;99.90;;;;;;5051969;28;20177;-73
2023/09/03 03:34:30;;;;;;;8.25;4.53;;;15.00;99.90;;;;;;5051741;28;20196;-73
2023/09/03 03:36:56;;;;;;;7.65;4.82;;;14.90;99.90;;;;;;5040787;28;20608;-74
2023/09/03 03:39:22;;;;;;;7.72;4.63;;;;;;;;;;5034301;28;20253;-74
2023/09/03 03:41:47;;;;;;;7.05;4.65;;;14.80;99.90;;;;;;5031623;28;20624;-73
2023/09/03 03:44:13;;;;;;;7.22;4.90;;;;;;;;;;5039061;28;20184;-73
2023/09/03 03:46:39;;;;;;;6.28;5.07;;;14.80;99.90;;;;;;5040786;28;20213;-73
2023/09/03 03:49:06;;;;;;;8.18;5.20;;;14.70;99.90;;;;;;5035534;28;20178;-73
2023/09/03 03:51:31;;;;;;;10.43;5.50;;;14.80;99.90;;;;;;5048201;28;20184;-74
2023/09/03 03:54:03;;;;;;;9.43;4.90;;;;;;;;;;5051385;28;20169;-73
2023/09/03 03:56:29;;;;;;;8.55;5.60;;;14.60;99.90;;;;;;5051580;28;20177;-73
2023/09/03 03:58:55;;;;;;;11.00;5.65;;;;;;;;;;5051606;28;20256;-74
2023/09/03 04:01:24;;;;;;;8.35;5.57;;;;;;;;;;5050028;28;20177;-73
2023/09/03 04:03:52;;;;;;;7.28;5.65;;;14.70;99.90;;;;;;5050330;28;20327;-73
2023/09/03 04:06:19;;;;;;;8.18;6.05;;;14.60;99.90;;;;;;5051247;28;20300;-72
2023/09/03 04:08:45;;;;;;;7.88;6.20;;;13.50;99.90;;;;;;5051245;28;20173;-73
2023/09/03 04:11:18;;;;;;;8.07;6.10;;;14.60;99.90;;;;;;5051591;28;20173;-73
2023/09/03 04:13:44;;;;;;;8.43;5.72;;;14.70;99.90;;;;;;5051513;28;20544;-73
2023/09/03 04:16:14;;;;;;;9.95;5.70;;;14.60;99.90;;;;;;5049905;28;20655;-73
2023/09/03 04:18:40;;;;;;;7.50;5.15;;;14.60;99.90;;;;;;5051340;28;20169;-73
2023/09/03 04:21:06;;;;;;;6.10;4.80;;;14.60;99.90;;;;;;5049991;28;20230;-73
2023/09/03 04:23:32;;;;;;;6.97;4.90;;;14.70;99.90;;;;;;5051332;28;20165;-72
2023/09/03 04:25:58;;;;;;;6.97;5.00;;;14.50;99.90;;;;;;5051027;28;20549;-73
2023/09/03 04:28:25;;;;;;;8.13;5.13;;;14.60;99.90;;;;;;5051070;28;20197;-73
2023/09/03 04:31:03;;;;;;;8.80;5.25;;;14.70;99.90;;;;;;5051007;28;20520;-73
2023/09/03 04:33:29;;;;;;;8.13;4.72;;;14.60;99.90;;;;;;5050809;28;20161;-73
2023/09/03 04:35:59;;;;;;;7.22;5.05;;;14.60;99.90;;;;;;5050468;28;20223;-74
2023/09/03 04:38:25;;;;;;;10.43;5.00;;;14.40;99.90;;;;;;5050949;28;20620;-73
2023/09/03 04:40:51;;;;;;;7.78;4.90;;;14.80;99.90;;;;;;5050946;28;20196;-73
2023/09/03 04:43:17;;;;;;;7.03;5.07;;;14.50;99.90;;;;;;5050724;28;20263;-73
2023/09/03 04:45:53;;;;;;;7.53;5.13;;;14.60;99.90;;;;;;5050586;28;20235;-73
2023/09/03 04:48:20;;;;;;;7.15;5.00;;;14.50;99.90;;;;;;5050827;28;20187;-73
2023/09/03 04:50:46;;;;;;;6.47;5.20;;;14.60;99.90;;;;;;5033788;28;20170;-73
2023/09/03 04:53:12;;;;;;;5.95;4.93;;;14.60;99.90;;;;;;5030902;28;20624;-73
2023/09/03 04:55:38;;;;;;;7.68;4.65;;;14.60;99.90;;;;;;5030897;28;20173;-73
2023/09/03 04:58:04;;;;;;;7.20;4.88;;;14.30;99.90;;;;;;5030689;28;20264;-73
2023/09/03 05:00:30;;;;;;;6.38;4.43;;;;;;;;;;5030734;28;20245;-73
2023/09/03 05:02:57;;;;;;;6.28;4.53;;;14.20;99.90;;;;;;5030700;28;20170;-73
2023/09/03 05:05:23;;;;;;;7.50;4.68;;;14.10;99.90;;;;;;5030749;28;20223;-73
2023/09/03 05:07:49;;;;;;;6.55;4.20;;;;;;;;;;5035535;28;20177;-72
2023/09/03 05:10:15;;;;;;;6.15;4.55;;;14.30;99.90;;;;;;5050561;28;20192;-73
2023/09/03 05:12:41;;;;;;;8.73;4.55;;;13.90;99.90;;;;;;5049142;28;20177;-73
2023/09/03 05:15:11;;;;;;;6.65;4.90;;;14.10;99.90;;;;;;5050491;28;20525;-72
2023/09/03 05:17:38;;;;;;;9.43;4.88;;;13.60;99.90;;;;;;5048605;28;20185;-73
2023/09/03 05:20:04;;;;;;;6.72;5.13;;;14.10;99.90;;;;;;5048458;28;20196;-73
2023/09/03 05:22:30;;;;;;;9.38;5.50;;;14.10;99.90;;;;;;5037099;28;20202;-74
2023/09/03 05:24:55;;;;;;;7.57;5.22;;;14.10;99.90;;;;;;5030902;28;20267;-74
2023/09/03 05:27:21;;;;;;;7.00;4.97;;;14.10;99.90;;;;;;5030645;28;20209;-73
2023/09/03 05:29:47;;;;;;;8.38;5.13;;;14.10;99.90;;;;;;5030621;28;20250;-73
2023/09/03 05:32:13;;;;;;;13.07;5.35;;;14.20;99.90;;;;;;5034683;28;20255;-73
2023/09/03 05:34:39;;;;;;;6.75;5.05;;;14.20;99.90;;;;;;5040222;28;20636;-73
2023/09/03 05:37:05;;;;;;;7.43;5.18;;;;;;;;;;5050268;28;20173;-73
2023/09/03 05:39:31;;;;;;;6.35;5.00;;;14.40;99.90;;;;;;5050421;28;20241;-73
2023/09/03 05:41:56;;;;;;;9.25;4.72;;;14.40;99.90;;;;;;5050392;28;20221;-73
2023/09/03 05:44:22;;;;;;;5.65;4.50;;;14.20;99.90;;;;;;5050298;28;20230;-73
2023/09/03 05:46:48;;;;;;;5.88;4.50;;;14.30;99.90;;;;;;5051953;28;20213;-73
2023/09/03 05:49:14;;;;;;;7.43;4.80;;;;;;;;;;5050229;28;20178;-73
2023/09/03 05:51:40;;;;;;;7.13;4.80;;;14.40;99.90;;;;;;5050453;28;20227;-73
2023/09/03 05:54:06;;;;;;;11.55;5.25;;;14.20;99.90;;;;;;5054176;28;20177;-73
2023/09/03 05:56:32;;;;;;;7.22;4.68;;;14.50;99.90;;;;;;5053893;28;20176;-73
2023/09/03 05:59:04;;;;;;;8.48;4.97;;;14.60;99.90;;;;;;5053868;28;20697;-73
2023/09/03 06:01:29;;;;;;;4.97;4.18;;;14.70;99.90;;;;;;5053946;28;20201;-73
2023/09/03 06:03:55;;;;;;;7.10;4.13;;;15.00;99.90;;;;;;5053945;28;21038;-74
2023/09/03 06:06:21;;;;;;;6.35;4.50;;;14.60;99.90;;;;;;5053588;28;20208;-73
2023/09/03 06:08:46;;;;;;;7.85;4.57;;;14.80;99.90;;;;;;5053735;28;20172;-73
2023/09/03 06:11:13;;;;;;;7.65;5.10;;;14.80;99.90;;;;;;5053610;28;20243;-73
2023/09/03 06:13:39;;;;;;;6.30;5.05;;;14.90;99.90;;;;;;5053751;28;20239;-73
2023/09/03 06:16:05;;;;;;;7.43;5.28;;;;;;;;;;5053411;28;20244;-73
2023/09/03 06:18:30;;;;;;;8.93;5.03;;;14.70;99.90;;;;;;5053541;28;20201;-73
2023/09/03 06:20:56;;;;;;;10.68;5.30;;;15.30;99.90;;;;;;5053588;28;20260;-73
2023/09/03 06:23:22;;;;;;;6.47;4.90;;;15.10;99.90;;;;;;5052019;28;20188;-73
2023/09/03 06:25:50;;;;;;;11.07;5.57;;;15.00;99.90;;;;;;5053433;28;20640;-74
2023/09/03 06:28:16;;;;;;;8.85;5.72;;;15.10;99.90;;;;;;5051660;28;20185;-73
2023/09/03 06:30:41;;;;;;;9.88;5.55;;;15.20;99.90;;;;;;5051161;28;20177;-73
2023/09/03 06:33:07;;;;;;;8.25;5.55;;;15.30;99.90;;;;;;5050292;28;20184;-73
2023/09/03 06:35:33;;;;;;;8.80;6.18;;;15.40;99.90;;;;;;5053388;28;20211;-73
2023/09/03 06:37:59;;;;;;;6.93;5.57;;;15.40;99.90;;;;;;5053256;28;20640;-74
2023/09/03 06:40:25;;;;;;;8.60;5.82;;;15.50;99.90;;;;;;5053090;28;20191;-73
2023/09/03 06:42:51;;;;;;;8.68;5.53;;;15.60;99.90;;;;;;5050659;28;20691;-73
2023/09/03 06:45:18;;;;;;;6.82;5.07;;;15.80;99.90;;;;;;5051792;28;20549;-73
2023/09/03 06:47:44;;;;;;;6.10;4.95;;;15.70;99.90;;;;;;5053033;28;20362;-73
2023/09/03 06:50:10;;;;;;;6.63;5.07;;;15.70;99.90;;;;;;5044531;28;20707;-73
2023/09/03 06:52:36;;;;;;;9.60;5.05;;;;;;;;;;5051415;28;20276;-73
2023/09/03 06:55:02;;;;;;;8.65;5.00;;;15.70;99.90;;;;;;5051478;28;20200;-73
2023/09/03 06:57:28;;;;;;;7.32;5.28;;;15.80;99.90;;;;;;5052061;28;20188;-73
2023/09/03 06:59:54;;;;;;;7.50;4.93;;;;;;;;;;5050942;28;20173;-73
2023/09/03 07:02:20;;;;;;;7.00;5.50;;;15.90;99.90;;;;;;5052506;28;20214;-72
2023/09/03 07:04:46;;;;;;;8.40;5.63;;;;;;;;;;5052605;28;20165;-73
2023/09/03 07:07:12;;;;;;;6.57;5.60;;;16.00;99.90;;;;;;5052429;28;20567;-72
2023/09/03 07:09:37;;;;;;;9.43;6.35;;;15.90;99.90;;;;;;5052338;28;20723;-73
2023/09/03 07:12:04;;;;;;;8.82;5.82;;;16.00;99.90;;;;;;5052119;28;20630;-72
2023/09/03 07:14:33;;;;;;;8.27;6.05;;;15.90;99.90;;;;;;5052869;28;20268;-72
2023/09/03 07:17:00;;;;;;;10.88;7.07;;;15.90;99.90;;;;;;5055427;28;20170;-72
2023/09/03 07:19:26;;;;;;;9.30;5.82;;;15.80;99.90;;;;;;5067944;28;20179;-72
2023/09/03 07:21:52;;;;;;;10.70;6.50;;;15.90;99.90;;;;;;5072498;28;20183;-72
2023/09/03 07:24:18;;;;;;;10.43;7.07;;;;;;;;;;5055534;28;20270;-71
2023/09/03 07:26:43;;;;;;;10.65;6.55;;;16.30;99.90;;;;;;5052109;28;20266;-74
2023/09/03 07:29:09;;;;;;;11.15;6.85;;;16.50;99.90;;;;;;5052227;28;20192;-72
2023/09/03 07:31:40;;;;;;;9.05;6.70;;;;;;;;;;5033870;28;20637;-72
2023/09/03 07:34:07;;;;;;;8.93;7.13;;;16.50;99.90;;;;;;5032013;28;20201;-73
2023/09/03 07:36:33;;;;;;;12.25;8.00;;;16.60;99.90;;;;;;5041858;28;20196;-73
2023/09/03 07:38:58;;;;;;;12.98;8.13;;;16.70;99.90;;;;;;5052047;28;20535;-73
2023/09/03 07:41:24;;;;;;;12.15;8.23;;;16.90;99.90;;;;;;5050388;28;20192;-74
2023/09/03 07:43:51;;;;;;;10.55;7.75;;;17.00;99.90;;;;;;5051929;28;20169;-74
2023/09/03 07:46:17;;;;;;;12.48;8.27;;;17.00;99.90;;;;;;5051882;28;20216;-74
2023/09/03 07:48:43;;;;;;;11.50;8.10;;;17.20;99.90;;;;;;5039889;28;20182;-74
2023/09/03 07:51:08;;;;;;;12.90;8.15;;;17.00;99.90;;;;;;5031825;28;20257;-74
2023/09/03 07:53:34;;;;;;;11.20;8.32;;;17.30;99.90;;;;;;5031945;28;20181;-74
2023/09/03 07:56:00;;;;;;;14.63;7.60;;;17.40;99.90;;;;;;5071594;28;20177;-74
2023/09/03 07:58:25;;;;;;;14.77;9.07;;;17.50;99.90;;;;;;5040561;28;20174;-74
2023/09/03 08:00:52;;;;;;;10.98;8.23;;;17.50;99.90;;;;;;5031818;28;20257;-75
2023/09/03 08:03:18;;;;;;;15.60;8.77;;;17.60;99.90;;;;;;5031684;28;20714;-73
2023/09/03 08:05:43;;;;;;;13.75;8.25;;;18.10;99.90;;;;;;5042681;28;20287;-73
2023/09/03 08:08:09;;;;;;;12.60;8.07;;;19.10;99.90;;;;;;5050519;28;20169;-73
2023/09/03 08:10:34;;;;;;;12.68;8.70;;;20.10;99.90;;;;;;5050491;28;20212;-73
2023/09/03 08:13:00;;;;;;;13.88;7.93;;;21.50;99.90;;;;;;5051335;28;20628;-76
2023/09/03 08:15:26;;;;;;;14.00;8.43;;;21.20;99.90;;;;;;5051284;28;20608;-76
2023/09/03 08:17:51;;;;;;;11.73;8.10;;;21.90;99.90;;;;;;5049924;28;20260;-76
2023/09/03 08:20:17;;;;;;;11.55;8.38;;;22.60;99.90;;;;;;5049697;28;20537;-75
2023/09/03 08:22:42;;;;;;;11.13;7.88;;;23.30;99.90;;;;;;5051109;28;20315;-75
2023/09/03 08:25:08;;;;;;;9.55;7.07;;;23.50;99.90;;;;;;5051124;28;20169;-75
2023/09/03 08:27:34;;;;;;;11.38;7.88;;;23.90;99.90;;;;;;5049488;28;20221;-75
2023/09/03 08:30:00;;;;;;;10.38;7.65;;;24.50;99.90;;;;;;5044885;28;20626;-75
2023/09/03 08:32:28;;;;;;;11.18;7.25;;;25.10;99.90;;;;;;5031230;28;20220;-76
2023/09/03 08:34:54;;;;;;;10.73;7.75;;;25.40;99.90;;;;;;5029944;28;20188;-75
2023/09/03 08:37:19;;;;;;;10.48;7.90;;;25.10;99.90;;;;;;5029889;28;20165;-75
2023/09/03 08:39:45;;;;;;;9.70;7.47;;;25.30;99.90;;;;;;5031223;28;20270;-74
2023/09/03 08:42:12;;;;;;;8.48;6.82;;;26.10;99.90;;;;;;5030836;28;20253;-75
2023/09/03 08:44:55;;;;;;;8.15;6.35;;;26.10;99.90;;;;;;5037411;28;20173;-75
2023/09/03 08:47:21;;;;;;;9.23;6.13;;;26.10;1.00;;;;;;5030767;28;20217;-75
2023/09/03 08:49:47;;;;;;;9.93;6.40;;;26.20;99.90;;;;;;5044134;28;20180;-75
2023/09/03 08:52:13;;;;;;;14.70;7.90;;;26.50;99.90;;;;;;5050819;28;20181;-75
2023/09/03 08:54:39;;;;;;;12.55;7.85;;;27.10;99.90;;;;;;5048753;28;20658;-75
2023/09/03 08:57:05;;;;;;;18.05;8.07;;;26.80;99.90;;;;;;5051016;28;20275;-75
2023/09/03 08:59:31;;;;;;;9.32;6.60;;;26.70;1.00;;;;;;5050771;28;20169;-76
2023/09/03 09:01:59;;;;;;;35.05;18.23;;;26.50;1.00;;;;;;5050371;28;20188;-76
2023/09/03 09:04:32;;;;;;;10.13;6.40;;;26.30;1.00;;;;;;5047418;28;20184;-74
2023/09/03 09:06:59;;;;;;;8.32;6.22;;;26.60;1.00;;;;;;5050728;28;20213;-75
2023/09/03 09:09:29;;;;;;;43.47;22.13;;;26.90;99.90;;;;;;5049049;28;20195;-75
2023/09/03 09:12:01;;;;;;;9.40;6.32;;;26.70;1.00;;;;;;5050027;28;20629;-76
2023/09/03 09:14:48;;;;;;;7.78;5.38;;;25.80;99.90;;;;;;5050534;28;20181;-74
2023/09/03 09:17:14;;;;;;;7.97;5.13;;;25.50;99.90;;;;;;5039782;28;20276;-76
2023/09/03 09:19:40;;;;;;;13.93;5.03;;;25.20;99.90;;;;;;5048521;28;20195;-75
2023/09/03 09:22:05;;;;;;;8.32;5.10;;;25.10;99.90;;;;;;5054214;28;20172;-74
2023/09/03 09:24:39;;;;;;;7.53;4.78;;;25.60;33.00;;;;;;5054566;28;20176;-73
2023/09/03 09:27:19;;;;;;;7.43;5.05;;;25.80;1.00;;;;;;5054354;28;20239;-75
2023/09/03 09:29:46;;;;;;;7.53;4.78;;;26.30;1.00;;;;;;5052720;28;20176;-74
2023/09/03 09:32:21;;;;;;;6.65;4.18;;;27.10;99.90;;;;;;5039656;28;20177;-74
2023/09/03 09:34:47;;;;;;;10.05;4.95;;;26.70;99.90;;;;;;5052245;28;20173;-73
2023/09/03 09:37:14;;;;;;;5.82;4.30;;;25.60;1.00;;;;;;5049780;28;20196;-74
2023/09/03 09:39:44;;;;;;;10.38;5.07;;;25.90;1.00;;;;;;5046415;28;20173;-74
2023/09/03 09:42:12;;;;;;;7.63;4.70;;;26.60;99.90;;;;;;5053777;28;20590;-73
2023/09/03 09:44:50;;;;;;;7.55;5.00;;;27.00;99.90;;;;;;5038657;28;20178;-74
2023/09/03 09:47:17;;;;;;;7.93;4.90;;;27.10;1.00;;;;;;5034165;28;20258;-74
2023/09/03 09:49:43;;;;;;;6.80;5.15;;;26.50;1.00;;;;;;5034317;28;20173;-75
2023/09/03 09:52:10;;;;;;;8.25;4.63;;;27.30;1.00;;;;;;5037422;28;20178;-75
2023/09/03 09:54:40;;;;;;;6.05;3.33;;;27.20;1.00;;;;;;5048019;28;20589;-75
2023/09/03 09:57:10;;;;;;;5.25;3.00;;;27.80;1.00;;;;;;5032428;28;20617;-74
2023/09/03 09:59:36;;;;;;;6.28;3.20;;;28.50;1.00;;;;;;5035365;28;20234;-74
2023/09/03 10:02:13;;;;;;;5.10;2.60;;;28.00;1.00;;;;;;5051985;28;20670;-75
2023/09/03 10:04:47;;;;;;;4.05;2.55;;;28.30;1.00;;;;;;5041662;28;20170;-75
2023/09/03 10:07:13;;;;;;;5.25;1.90;;;28.60;1.00;;;;;;5032120;28;20213;-75
2023/09/03 10:09:40;;;;;;;2.53;1.60;;;28.60;1.00;;;;;;5032057;28;20684;-74
2023/09/03 10:12:07;;;;;;;4.05;1.88;;;28.30;99.90;;;;;;5040449;28;20251;-75
2023/09/03 10:14:33;;;;;;;3.33;1.88;;;28.80;99.90;;;;;;5032016;28;20178;-75
2023/09/03 10:17:06;;;;;;;3.55;2.17;;;29.10;99.90;;;;;;5033588;28;20161;-75
2023/09/03 10:19:49;;;;;;;4.60;1.95;;;28.80;99.90;;;;;;5032347;28;20648;-75
2023/09/03 10:22:18;;;;;;;4.57;1.77;;;29.50;99.90;;;;;;5033821;28;20177;-76
2023/09/03 10:24:48;;;;;;;3.28;1.60;;;29.30;99.90;;;;;;5033777;28;20228;-75
2023/09/03 10:27:17;;;;;;;3.55;1.92;;;30.10;99.90;;;;;;5033474;28;20279;-75
2023/09/03 10:29:47;;;;;;;3.58;1.77;;;29.50;99.90;;;;;;5033506;28;20173;-75
2023/09/03 10:32:15;;;;;;;2.63;1.58;;;29.50;36.50;;;;;;5032441;28;20223;-75
2023/09/03 10:34:41;;;;;;;4.07;2.03;;;29.50;1.00;;;;;;5034024;28;20161;-75
2023/09/03 10:37:12;;;;;;;6.07;3.00;;;30.00;1.00;;;;;;5035261;28;20181;-75
2023/09/03 10:39:42;;;;;;;3.95;2.00;;;30.50;1.00;;;;;;5033598;28;20252;-76
2023/09/03 10:42:23;;;;;;;3.17;2.20;;;31.00;1.00;;;;;;5064797;28;20749;-75
2023/09/03 10:44:57;;;;;;;5.65;1.83;;;30.90;1.00;;;;;;5033078;28;20181;-75
2023/09/03 10:47:23;;;;;;;2.67;1.77;;;30.50;1.00;;;;;;5032875;28;20216;-75
2023/09/03 10:49:51;;;;;;;2.65;1.73;;;30.40;1.00;;;;;;5033213;28;20169;-75
2023/09/03 10:52:28;;;;;;;5.32;2.10;;;30.60;1.00;;;;;;5033031;28;20180;-75
2023/09/03 10:55:22;;;;;;;7.05;2.00;;;30.40;1.00;;;;;;5031528;28;20173;-76
2023/09/03 10:58:10;;;;;;;1.92;1.50;;;30.60;1.00;;;;;;5032839;28;20226;-75
2023/09/03 11:00:36;;;;;;;9.57;3.60;;;;;;;;;;5032759;28;20173;-75
2023/09/03 11:03:18;;;;;;;12.18;3.70;;;31.00;1.00;;;;;;5032757;28;20176;-75
2023/09/03 11:06:20;;;;;;;16.70;4.88;;;31.10;1.00;;;;;;5032856;28;20177;-74
2023/09/03 11:08:46;;;;;;;5.00;2.35;;;30.80;99.90;;;;;;5031403;28;20211;-73
2023/09/03 11:11:19;;;;;;;13.30;4.10;;;31.10;1.00;;;;;;5032847;28;20173;-74
2023/09/03 11:13:52;;;;;;;15.60;5.35;;;31.80;1.00;;;;;;5032762;28;20196;-73
2023/09/03 11:16:18;;;;;;;17.58;4.53;;;31.80;1.00;;;;;;5032659;28;20272;-74
2023/09/03 11:18:48;;;;;;;25.70;9.35;;;31.50;1.00;;;;;;5033998;28;20227;-75
2023/09/03 11:21:14;;;;;;;13.32;4.78;;;31.20;99.90;;;;;;5032746;28;20181;-75
2023/09/03 11:23:40;;;;;;;5.05;2.00;;;;;;;;;;5032471;28;20234;-75
2023/09/03 11:26:13;;;;;;;29.08;8.68;;;32.20;99.90;;;;;;5035197;28;20197;-75
2023/09/03 11:28:38;;;;;;;10.43;2.00;;;30.50;48.40;;;;;;5032310;28;20177;-76
2023/09/03 11:31:04;;;;;;;2.60;1.80;;;29.90;99.90;;;;;;5039294;28;20165;-75
2023/09/03 11:33:30;;;;;;;5.13;2.00;;;;;;;;;;5052066;28;20175;-75
2023/09/03 11:36:00;;;;;;;4.55;1.80;;;31.20;99.90;;;;;;5051867;28;20169;-75
2023/09/03 11:38:26;;;;;;;4.78;1.48;;;;;;;;;;5052003;28;20554;-75
2023/09/03 11:40:56;;;;;;;2.40;1.60;;;31.70;1.00;;;;;;5052000;28;20168;-75
2023/09/03 11:43:22;;;;;;;1.58;1.30;;;31.40;1.00;;;;;;5043290;28;20225;-75
2023/09/03 11:45:48;;;;;;;2.95;1.52;;;31.40;1.00;;;;;;5044066;28;20235;-77
2023/09/03 11:48:14;;;;;;;2.97;1.30;;;;;;;;;;5035841;28;20258;-76
2023/09/03 11:50:40;;;;;;;2.92;2.03;;;;;;;;;;5031790;28;20873;-75
2023/09/03 11:53:09;;;;;;;6.60;2.00;;;32.10;92.50;;;;;;5031716;28;20201;-76
2023/09/03 11:55:44;;;;;;;2.90;1.90;;;32.20;1.00;;;;;;5050618;28;20180;-76
2023/09/03 11:58:13;;;;;;;1.77;1.55;;;32.70;99.90;;;;;;5051649;28;20164;-77
2023/09/03 12:00:39;;;;;;;3.08;1.65;;;33.60;1.00;;;;;;5051598;28;20184;-75
2023/09/03 12:03:05;;;;;;;3.05;1.80;;;34.00;1.00;;;;;;5051872;28;20169;-75
2023/09/03 12:05:34;;;;;;;3.90;2.03;;;33.70;99.90;;;;;;5034444;28;20177;-76
2023/09/03 12:08:04;;;;;;;3.03;1.70;;;36.10;99.90;;;;;;5031737;28;20228;-76
2023/09/03 12:10:31;;;;;;;3.03;2.13;;;33.80;99.90;;;;;;5031476;28;20628;-75
2023/09/03 12:12:59;;;;;;;3.95;1.70;;;33.50;99.90;;;;;;5040353;28;20173;-74
2023/09/03 12:15:26;;;;;;;5.18;2.17;;;33.80;99.90;;;;;;5048725;28;20183;-75
2023/09/03 12:17:52;;;;;;;2.65;1.98;;;33.50;1.00;;;;;;5031338;28;20177;-75
2023/09/03 12:20:35;;;;;;;3.70;1.73;;;33.10;43.80;;;;;;5030964;28;20222;-75
2023/09/03 12:23:07;;;;;;;3.35;1.65;;;33.40;99.90;;;;;;5043136;28;20164;-75
2023/09/03 12:25:34;;;;;;;2.40;1.55;;;32.50;1.00;;;;;;5051240;28;20184;-75
2023/09/03 12:28:00;;;;;;;2.53;1.80;;;;;;;;;;5048933;28;20176;-75
2023/09/03 12:30:26;;;;;;;15.32;2.00;;;33.10;99.90;;;;;;5049054;28;20867;-75
2023/09/03 12:32:55;;;;;;;2.97;1.88;;;33.30;1.00;;;;;;5047996;28;20230;-75
2023/09/03 12:35:22;;;;;;;2.75;1.70;;;;;;;;;;5049791;28;20210;-75
2023/09/03 12:37:48;;;;;;;3.13;1.70;;;;;;;;;;5049786;28;20214;-75
2023/09/03 12:40:14;;;;;;;11.50;2.10;;;33.20;62.00;;;;;;5050364;28;20176;-74
2023/09/03 12:42:39;;;;;;;8.90;1.90;;;33.20;99.90;;;;;;5049671;28;20220;-74
2023/09/03 12:45:06;;;;;;;2.75;1.85;;;33.60;1.00;;;;;;5049293;28;20519;-74
2023/09/03 12:47:32;;;;;;;3.25;1.75;;;;;;;;;;5041546;28;20244;-74
2023/09/03 12:49:58;;;;;;;5.95;1.70;;;;;;;;;;5030960;28;20165;-74
2023/09/03 12:52:24;;;;;;;4.20;1.60;;;;;;;;;;5030475;28;20647;-74
2023/09/03 12:54:50;;;;;;;3.97;1.67;;;34.90;99.90;;;;;;5045167;28;20226;-74
2023/09/03 12:57:16;;;;;;;3.75;1.67;;;;;;;;;;5050406;28;20181;-75
2023/09/03 12:59:41;;;;;;;1.70;1.60;;;34.90;99.90;;;;;;5035864;28;20231;-75
2023/09/03 13:02:07;;;;;;;3.13;1.60;;;;;;;;;;5030999;28;20666;-76
2023/09/03 13:04:33;;;;;;;2.47;1.80;;;35.10;1.00;;;;;;5030705;28;20244;-75